createdAt,value
2018-09-14T00:00:38.560Z,101971.03
2018-09-14T00:03:08.225Z,101973.23
2018-09-14T00:05:37.265Z,101973.27
2018-09-14T00:08:06.018Z,101975.15
2018-09-14T00:10:34.764Z,101976.50
2018-09-14T00:13:03.474Z,101976.79
2018-09-14T00:15:32.558Z,101980.09
2018-09-14T00:18:01.638Z,101974.42
2018-09-14T00:20:30.559Z,101975.83
2018-09-14T00:22:59.324Z,101974.50
2018-09-14T00:25:28.515Z,101972.59
2018-09-14T00:27:57.296Z,101971.53
2018-09-14T00:30:26.718Z,101971.53
2018-09-14T00:32:55.678Z,101963.97
2018-09-14T00:35:24.492Z,101973.19
2018-09-14T00:37:53.261Z,101961.28
2018-09-14T00:40:22.348Z,101962.09
2018-09-14T00:42:51.116Z,101955.08
2018-09-14T00:45:20.226Z,101958.05
2018-09-14T00:47:48.941Z,101959.16
2018-09-14T00:50:17.889Z,101955.63
2018-09-14T00:52:46.681Z,101951.58
2018-09-14T00:55:16.114Z,101953.00
2018-09-14T00:57:45.436Z,101953.30
2018-09-14T01:00:14.151Z,101949.54
2018-09-14T01:02:43.470Z,101956.33
2018-09-14T01:05:12.806Z,101959.61
2018-09-14T01:07:41.959Z,101960.70
2018-09-14T01:10:10.948Z,101962.86
2018-09-14T01:12:40.215Z,101958.00
2018-09-14T01:15:09.022Z,101953.66
2018-09-14T01:17:37.797Z,101962.06
2018-09-14T01:20:07.087Z,101957.99
2018-09-14T01:22:36.377Z,101955.55
2018-09-14T01:25:05.123Z,101955.00
2018-09-14T01:27:34.282Z,101960.69
2018-09-14T01:30:03.328Z,101955.55
2018-09-14T01:32:32.781Z,101947.67
2018-09-14T01:35:01.876Z,101950.66
2018-09-14T01:37:30.940Z,101946.88
2018-09-14T01:39:59.974Z,101949.59
2018-09-14T01:42:28.758Z,101945.29
2018-09-14T01:44:58.113Z,101942.30
2018-09-14T01:47:27.231Z,101948.00
2018-09-14T01:49:55.977Z,101948.25
2018-09-14T01:52:25.043Z,101937.17
2018-09-14T01:54:54.181Z,101938.53
2018-09-14T01:57:22.958Z,101942.88
2018-09-14T01:59:51.750Z,101932.05
2018-09-14T02:02:20.922Z,101933.13
2018-09-14T02:04:51.106Z,101930.41
2018-09-14T02:07:20.183Z,101933.94
2018-09-14T02:09:49.254Z,101932.04
2018-09-14T02:12:18.535Z,101933.11
2018-09-14T02:14:47.894Z,101926.62
2018-09-14T02:17:16.970Z,101930.16
2018-09-14T02:19:45.998Z,101931.77
2018-09-14T02:22:15.259Z,101921.22
2018-09-14T02:24:44.250Z,101919.34
2018-09-14T02:27:13.149Z,101915.56
2018-09-14T02:29:42.630Z,101912.58
2018-09-14T02:32:11.356Z,101910.67
2018-09-14T02:34:40.138Z,101899.05
2018-09-14T02:37:09.168Z,101907.69
2018-09-14T02:39:38.212Z,101906.09
2018-09-14T02:42:07.235Z,101904.19
2018-09-14T02:44:36.098Z,101896.62
2018-09-14T02:47:07.931Z,101893.36
2018-09-14T02:49:37.282Z,101885.80
2018-09-14T02:52:06.026Z,101889.06
2018-09-14T02:54:35.046Z,101892.30
2018-09-14T02:57:04.498Z,101889.34
2018-09-14T02:59:34.539Z,101886.64
2018-09-14T03:02:03.335Z,101893.41
2018-09-14T03:04:32.253Z,101889.07
2018-09-14T03:07:01.683Z,101902.31
2018-09-14T03:09:30.772Z,101902.59
2018-09-14T03:11:59.964Z,101903.67
2018-09-14T03:14:29.331Z,101903.67
2018-09-14T03:16:58.237Z,101897.73
2018-09-14T03:19:26.976Z,101906.66
2018-09-14T03:21:55.718Z,101895.83
2018-09-14T03:24:24.468Z,101896.94
2018-09-14T03:26:53.716Z,101899.91
2018-09-14T03:29:22.838Z,101895.58
2018-09-14T03:31:52.343Z,101897.73
2018-09-14T03:34:21.091Z,101890.16
2018-09-14T03:36:50.077Z,101895.02
2018-09-14T03:39:18.823Z,101894.22
2018-09-14T03:41:48.161Z,101896.64
2018-09-14T03:44:16.878Z,101896.12
2018-09-14T03:46:45.605Z,101893.41
2018-09-14T03:49:14.394Z,101896.91
2018-09-14T03:51:43.326Z,101895.83
2018-09-14T03:54:12.070Z,101892.33
2018-09-14T03:56:40.811Z,101894.20
2018-09-14T03:59:09.522Z,101888.55
2018-09-14T04:01:38.296Z,101898.53
2018-09-14T04:04:07.303Z,101896.66
2018-09-14T04:06:37.065Z,101893.95
2018-09-14T04:09:08.230Z,101898.00
2018-09-14T04:11:37.328Z,101899.34
2018-09-14T04:14:06.183Z,101897.16
2018-09-14T04:16:34.930Z,101891.78
2018-09-14T04:19:05.138Z,101900.12
2018-09-14T04:21:36.043Z,101897.70
2018-09-14T04:24:05.314Z,101895.27
2018-09-14T04:26:34.048Z,101892.84
2018-09-14T04:29:02.874Z,101898.25
2018-09-14T04:31:31.971Z,101886.08
2018-09-14T04:34:00.968Z,101892.03
2018-09-14T04:36:29.992Z,101897.96
2018-09-14T04:38:58.734Z,101899.03
2018-09-14T04:41:27.510Z,101900.94
2018-09-14T04:43:56.609Z,101902.56
2018-09-14T04:46:25.326Z,101898.78
2018-09-14T04:48:54.097Z,101910.95
2018-09-14T04:51:22.895Z,101917.14
2018-09-14T04:53:51.577Z,101911.21
2018-09-14T04:56:20.982Z,101911.73
2018-09-14T04:58:49.819Z,101909.03
2018-09-14T05:01:18.529Z,101908.75
2018-09-14T05:03:47.263Z,101909.02
2018-09-14T05:06:16.548Z,101904.69
2018-09-14T05:08:45.293Z,101905.79
2018-09-14T05:11:14.420Z,101905.23
2018-09-14T05:13:43.150Z,101900.11
2018-09-14T05:16:12.257Z,101900.63
2018-09-14T05:18:41.058Z,101899.56
2018-09-14T05:21:09.972Z,101898.48
2018-09-14T05:23:39.276Z,101896.05
2018-09-14T05:26:08.689Z,101897.69
2018-09-14T05:28:37.464Z,101893.87
2018-09-14T05:31:06.545Z,101892.80
2018-09-14T05:33:36.193Z,101896.85
2018-09-14T05:36:05.318Z,101893.88
2018-09-14T05:38:35.537Z,101890.66
2018-09-14T05:41:04.305Z,101888.48
2018-09-14T05:43:33.074Z,101894.45
2018-09-14T05:46:02.019Z,101886.86
2018-09-14T05:48:31.075Z,101891.47
2018-09-14T05:51:00.159Z,101886.88
2018-09-14T05:53:28.948Z,101892.55
2018-09-14T05:55:58.527Z,101893.62
2018-09-14T05:58:27.998Z,101890.92
2018-09-14T06:00:57.195Z,101889.84
2018-09-14T06:03:26.611Z,101887.44
2018-09-14T06:05:56.440Z,101888.25
2018-09-14T06:08:25.545Z,101885.00
2018-09-14T06:10:54.270Z,101880.42
2018-09-14T06:13:23.064Z,101886.36
2018-09-14T06:15:53.534Z,101885.02
2018-09-14T06:18:22.515Z,101881.77
2018-09-14T06:20:51.665Z,101887.98
2018-09-14T06:23:20.527Z,101895.83
2018-09-14T06:25:49.233Z,101893.12
2018-09-14T06:28:18.029Z,101899.62
2018-09-14T06:30:46.792Z,101903.12
2018-09-14T06:33:15.852Z,101900.96
2018-09-14T06:35:45.594Z,101904.45
2018-09-14T06:38:14.438Z,101901.97
2018-09-14T06:40:43.161Z,101894.64
2018-09-14T06:43:12.516Z,101897.59
2018-09-14T06:45:42.611Z,101894.80
2018-09-14T06:48:11.346Z,101893.36
2018-09-14T06:50:40.425Z,101894.89
2018-09-14T06:53:10.003Z,101894.81
2018-09-14T06:55:39.060Z,101900.66
2018-09-14T06:58:08.116Z,101893.72
2018-09-14T07:00:36.842Z,101895.22
2018-09-14T07:03:05.888Z,101894.80
2018-09-14T07:05:34.686Z,101891.39
2018-09-14T07:08:03.430Z,101893.70
2018-09-14T07:10:32.165Z,101894.61
2018-09-14T07:13:01.275Z,101899.91
2018-09-14T07:15:30.047Z,101901.63
2018-09-14T07:17:58.814Z,101898.47
2018-09-14T07:20:27.560Z,101897.75
2018-09-14T07:22:56.659Z,101899.48
2018-09-14T07:25:25.618Z,101900.91
2018-09-14T07:27:54.925Z,101901.53
2018-09-14T07:30:23.770Z,101900.52
2018-09-14T07:32:52.746Z,101895.67
2018-09-14T07:35:21.757Z,101902.22
2018-09-14T07:37:50.455Z,101898.19
2018-09-14T07:40:19.788Z,101906.08
2018-09-14T07:42:48.834Z,101905.77
2018-09-14T07:45:17.564Z,101905.23
2018-09-14T07:47:46.294Z,101907.45
2018-09-14T07:50:15.042Z,101913.73
2018-09-14T07:52:44.014Z,101907.20
2018-09-14T07:55:12.821Z,101899.55
2018-09-14T07:57:41.884Z,101908.27
2018-09-14T08:00:11.099Z,101903.29
2018-09-14T08:02:40.677Z,101906.17
2018-09-14T08:05:09.676Z,101903.09
2018-09-14T08:07:38.406Z,101906.53
2018-09-14T08:10:07.446Z,101899.40
2018-09-14T08:12:36.758Z,101900.14
2018-09-14T08:15:05.908Z,101909.67
2018-09-14T08:17:34.843Z,101907.50
2018-09-14T08:20:04.148Z,101913.08
2018-09-14T08:22:32.987Z,101905.47
2018-09-14T08:25:01.775Z,101912.24
2018-09-14T08:27:30.533Z,101910.19
2018-09-14T08:29:59.508Z,101916.89
2018-09-14T08:32:28.326Z,101917.48
2018-09-14T08:34:57.063Z,101914.98
2018-09-14T08:37:26.104Z,101921.20
2018-09-14T08:39:58.352Z,101926.77
2018-09-14T08:42:29.081Z,101932.13
2018-09-14T08:44:59.812Z,101932.09
2018-09-14T08:47:31.654Z,101937.09
2018-09-14T08:50:03.593Z,101935.48
2018-09-14T08:52:35.311Z,101939.22
2018-09-14T08:55:04.119Z,101945.07
2018-09-14T08:57:33.393Z,101939.23
2018-09-14T09:00:02.161Z,101945.92
2018-09-14T09:02:31.404Z,101935.14
2018-09-14T09:05:00.396Z,101942.14
2018-09-14T09:07:29.129Z,101941.44
2018-09-14T09:09:57.831Z,101938.23
2018-09-14T09:12:26.878Z,101940.03
2018-09-14T09:14:55.848Z,101941.58
2018-09-14T09:17:24.554Z,101932.02
2018-09-14T09:19:53.582Z,101931.48
2018-09-14T09:22:22.590Z,101931.10
2018-09-14T09:24:51.291Z,101933.08
2018-09-14T09:27:20.308Z,101924.81
2018-09-14T09:29:49.279Z,101934.10
2018-09-14T09:32:18.311Z,101931.20
2018-09-14T09:34:47.326Z,101934.58
2018-09-14T09:37:16.787Z,101934.75
2018-09-14T09:39:45.481Z,101921.58
2018-09-14T09:42:15.410Z,101922.98
2018-09-14T09:44:44.132Z,101913.48
2018-09-14T09:47:13.212Z,101919.88
2018-09-14T09:49:41.846Z,101922.77
2018-09-14T09:52:11.086Z,101914.97
2018-09-14T09:54:40.484Z,101912.90
2018-09-14T09:57:09.474Z,101913.49
2018-09-14T09:59:38.939Z,101909.58
2018-09-14T10:02:13.012Z,101904.52
2018-09-14T10:04:46.797Z,101906.47
2018-09-14T10:07:16.625Z,101903.57
2018-09-14T10:09:45.704Z,101907.16
2018-09-14T10:12:14.709Z,101908.41
2018-09-14T10:14:43.689Z,101911.16
2018-09-14T10:17:12.983Z,101901.79
2018-09-14T10:19:41.756Z,101909.10
2018-09-14T10:22:10.500Z,101908.61
2018-09-14T10:24:39.581Z,101914.05
2018-09-14T10:27:08.600Z,101915.94
2018-09-14T10:29:37.307Z,101913.73
2018-09-14T10:32:06.118Z,101909.55
2018-09-14T10:34:34.828Z,101900.62
2018-09-14T10:37:04.136Z,101903.69
2018-09-14T10:39:33.188Z,101904.90
2018-09-14T10:42:02.309Z,101894.08
2018-09-14T10:44:31.289Z,101893.50
2018-09-14T10:47:00.084Z,101898.86
2018-09-14T10:49:28.803Z,101890.95
2018-09-14T10:51:57.976Z,101889.80
2018-09-14T10:54:27.174Z,101879.95
2018-09-14T10:56:56.305Z,101875.86
2018-09-14T10:59:25.623Z,101874.38
2018-09-14T11:01:54.876Z,101869.45
2018-09-14T11:04:24.158Z,101864.55
2018-09-14T11:06:52.879Z,101865.61
2018-09-14T11:09:21.878Z,101852.18
2018-09-14T11:11:51.258Z,101850.30
2018-09-14T11:14:20.061Z,101852.98
2018-09-14T11:16:49.152Z,101851.91
2018-09-14T11:19:17.978Z,101847.75
2018-09-14T11:21:47.588Z,101849.34
2018-09-14T11:24:17.144Z,101844.50
2018-09-14T11:26:46.337Z,101845.19
2018-09-14T11:29:15.307Z,101845.13
2018-09-14T11:31:44.564Z,101840.89
2018-09-14T11:34:13.285Z,101845.39
2018-09-14T11:36:42.339Z,101832.80
2018-09-14T11:39:11.570Z,101829.98
2018-09-14T11:41:40.772Z,101842.21
2018-09-14T11:44:09.539Z,101831.35
2018-09-14T11:46:38.815Z,101830.66
2018-09-14T11:49:07.906Z,101816.56
2018-09-14T11:51:36.945Z,101817.65
2018-09-14T11:54:06.773Z,101814.03
2018-09-14T11:56:35.854Z,101815.16
2018-09-14T11:59:04.548Z,101808.14
2018-09-14T12:01:33.711Z,101816.36
2018-09-14T12:04:02.803Z,101807.27
2018-09-14T12:06:32.174Z,101798.05
2018-09-14T12:09:01.181Z,101809.86
2018-09-14T12:11:30.519Z,101806.48
2018-09-14T12:13:59.251Z,101808.42
2018-09-14T12:16:28.993Z,101791.33
2018-09-14T12:18:57.955Z,101797.80
2018-09-14T12:21:26.695Z,101789.19
2018-09-14T12:23:55.419Z,101795.34
2018-09-14T12:26:24.150Z,101788.81
2018-09-14T12:28:53.169Z,101784.12
2018-09-14T12:31:22.282Z,101782.58
2018-09-14T12:33:51.693Z,101773.91
2018-09-14T12:36:20.570Z,101778.38
2018-09-14T12:38:49.359Z,101771.67
2018-09-14T12:41:18.402Z,101777.09
2018-09-14T12:43:47.417Z,101773.70
2018-09-14T12:46:16.102Z,101770.36
2018-09-14T12:48:45.721Z,101768.95
2018-09-14T12:51:15.012Z,101771.05
2018-09-14T12:53:44.538Z,101765.11
2018-09-14T12:56:13.291Z,101763.52
2018-09-14T12:58:42.279Z,101764.84
2018-09-14T13:01:11.036Z,101756.15
2018-09-14T13:03:39.802Z,101757.12
2018-09-14T13:06:08.515Z,101755.22
2018-09-14T13:08:37.710Z,101756.03
2018-09-14T13:11:06.760Z,101750.16
2018-09-14T13:13:35.461Z,101756.27
2018-09-14T13:16:04.570Z,101744.45
2018-09-14T13:18:33.493Z,101742.48
2018-09-14T13:21:02.223Z,101730.30
2018-09-14T13:23:37.302Z,101734.14
2018-09-14T13:26:06.336Z,101731.34
2018-09-14T13:28:35.563Z,101729.56
2018-09-14T13:31:04.622Z,101729.15
2018-09-14T13:33:33.353Z,101729.20
2018-09-14T13:36:02.711Z,101730.01
2018-09-14T13:38:31.790Z,101733.00
2018-09-14T13:41:00.510Z,101729.34
2018-09-14T13:43:29.619Z,101723.17
2018-09-14T13:45:58.707Z,101729.11
2018-09-14T13:48:27.394Z,101723.56
2018-09-14T13:50:57.229Z,101723.36
2018-09-14T13:53:26.381Z,101716.17
2018-09-14T13:55:55.223Z,101724.45
2018-09-14T13:58:24.215Z,101715.20
2018-09-14T14:00:53.306Z,101716.17
2018-09-14T14:03:22.378Z,101710.74
2018-09-14T14:05:51.079Z,101707.75
2018-09-14T14:08:19.832Z,101707.67
2018-09-14T14:10:49.134Z,101708.03
2018-09-14T14:13:17.860Z,101712.26
2018-09-14T14:15:46.821Z,101703.97
2018-09-14T14:18:15.792Z,101709.35
2018-09-14T14:20:44.812Z,101709.72
2018-09-14T14:23:13.662Z,101705.45
2018-09-14T14:25:42.833Z,101709.62
2018-09-14T14:28:12.369Z,101707.06
2018-09-14T14:30:41.446Z,101700.21
2018-09-14T14:33:10.503Z,101694.63
2018-09-14T14:35:39.544Z,101695.14
2018-09-14T14:38:09.031Z,101695.75
2018-09-14T14:40:37.777Z,101697.66
2018-09-14T14:43:06.586Z,101699.37
2018-09-14T14:45:35.614Z,101695.25
2018-09-14T14:48:04.364Z,101697.80
2018-09-14T14:50:33.362Z,101695.53
2018-09-14T14:53:02.434Z,101692.41
2018-09-14T14:55:31.541Z,101692.41
2018-09-14T14:58:00.766Z,101686.70
2018-09-14T15:00:29.941Z,101683.07
2018-09-14T15:02:58.657Z,101679.11
2018-09-14T15:05:27.707Z,101678.40
2018-09-14T15:07:56.873Z,101672.18
2018-09-14T15:10:26.205Z,101676.98
2018-09-14T15:12:55.489Z,101680.07
2018-09-14T15:15:24.287Z,101678.06
2018-09-14T15:17:53.061Z,101672.84
2018-09-14T15:20:21.849Z,101664.80
2018-09-14T15:22:50.758Z,101665.55
2018-09-14T15:25:19.767Z,101666.39
2018-09-14T15:27:48.551Z,101665.16
2018-09-14T15:30:17.565Z,101666.94
2018-09-14T15:32:46.602Z,101660.86
2018-09-14T15:35:15.321Z,101658.40
2018-09-14T15:37:44.371Z,101660.59
2018-09-14T15:40:13.417Z,101657.43
2018-09-14T15:42:42.436Z,101658.40
2018-09-14T15:45:11.178Z,101657.95
2018-09-14T15:47:40.189Z,101659.61
2018-09-14T15:50:08.922Z,101664.50
2018-09-14T15:52:37.915Z,101668.08
2018-09-14T15:55:06.914Z,101662.29
2018-09-14T15:57:36.036Z,101670.21
2018-09-14T16:00:05.313Z,101666.33
2018-09-14T16:02:34.742Z,101664.68
2018-09-14T16:05:03.498Z,101660.86
2018-09-14T16:07:32.556Z,101660.66
2018-09-14T16:10:01.349Z,101660.52
2018-09-14T16:12:30.330Z,101659.03
2018-09-14T16:14:59.307Z,101656.47
2018-09-14T16:17:28.154Z,101656.75
2018-09-14T16:19:57.216Z,101662.65
2018-09-14T16:22:25.918Z,101659.52
2018-09-14T16:24:54.646Z,101660.81
2018-09-14T16:27:23.367Z,101662.02
2018-09-14T16:29:53.152Z,101656.94
2018-09-14T16:32:22.231Z,101665.12
2018-09-14T16:34:50.946Z,101663.69
2018-09-14T16:37:19.835Z,101659.59
2018-09-14T16:39:48.560Z,101660.55
2018-09-14T16:42:17.913Z,101659.89
2018-09-14T16:44:46.679Z,101660.52
2018-09-14T16:47:15.366Z,101660.23
2018-09-14T16:49:44.107Z,101662.07
2018-09-14T16:52:13.094Z,101671.33
2018-09-14T16:54:41.853Z,101675.17
2018-09-14T16:57:10.611Z,101678.36
2018-09-14T16:59:39.327Z,101678.68
2018-09-14T17:02:08.468Z,101683.58
2018-09-14T17:04:37.299Z,101681.19
2018-09-14T17:07:09.970Z,101683.52
2018-09-14T17:09:39.311Z,101685.13
2018-09-14T17:12:09.713Z,101685.50
2018-09-14T17:14:39.280Z,101687.45
2018-09-14T17:17:08.455Z,101685.75
2018-09-14T17:19:37.375Z,101689.74
2018-09-14T17:22:06.690Z,101698.25
2018-09-14T17:24:35.726Z,101701.22
2018-09-14T17:27:06.152Z,101692.38
2018-09-14T17:29:36.547Z,101690.90
2018-09-14T17:32:06.791Z,101692.73
2018-09-14T17:34:36.911Z,101697.75
2018-09-14T17:37:11.920Z,101695.59
2018-09-14T17:39:41.052Z,101692.48
2018-09-14T17:42:10.129Z,101693.28
2018-09-14T17:44:38.944Z,101685.72
2018-09-14T17:47:08.236Z,101685.09
2018-09-14T17:49:37.405Z,101680.41
2018-09-14T17:52:09.167Z,101683.72
2018-09-14T17:54:38.620Z,101688.30
2018-09-14T17:57:08.001Z,101691.59
2018-09-14T17:59:36.852Z,101691.59
2018-09-14T18:02:06.055Z,101693.55
2018-09-14T18:04:34.918Z,101691.15
2018-09-14T18:07:03.912Z,101688.27
2018-09-14T18:09:32.951Z,101688.41
2018-09-14T18:12:01.714Z,101689.98
2018-09-14T18:14:30.906Z,101691.94
2018-09-14T18:17:01.094Z,101696.06
2018-09-14T18:19:31.261Z,101696.52
2018-09-14T18:22:00.913Z,101697.20
2018-09-14T18:24:29.935Z,101699.47
2018-09-14T18:26:58.642Z,101703.11
2018-09-14T18:29:27.474Z,101699.89
2018-09-14T18:31:56.527Z,101694.36
2018-09-14T18:34:25.542Z,101700.05
2018-09-14T18:36:54.400Z,101697.41
2018-09-14T18:39:23.454Z,101696.97
2018-09-14T18:41:52.228Z,101710.69
2018-09-14T18:44:21.154Z,101706.20
2018-09-14T18:46:50.707Z,101707.45
2018-09-14T18:49:19.946Z,101708.94
2018-09-14T18:51:48.987Z,101716.34
2018-09-14T18:54:18.776Z,101706.10
2018-09-14T18:56:47.941Z,101704.14
2018-09-14T18:59:16.727Z,101709.83
2018-09-14T19:01:45.802Z,101707.92
2018-09-14T19:04:14.889Z,101706.05
2018-09-14T19:06:44.053Z,101703.16
2018-09-14T19:09:13.474Z,101704.87
2018-09-14T19:11:42.483Z,101704.17
2018-09-14T19:14:11.918Z,101702.66
2018-09-14T19:16:40.633Z,101707.75
2018-09-14T19:19:09.465Z,101709.34
2018-09-14T19:21:38.573Z,101709.77
2018-09-14T19:24:07.340Z,101700.58
2018-09-14T19:26:36.566Z,101695.30
2018-09-14T19:29:05.605Z,101706.83
2018-09-14T19:31:34.966Z,101702.71
2018-09-14T19:34:04.038Z,101703.38
2018-09-14T19:36:33.159Z,101711.13
2018-09-14T19:39:02.732Z,101713.02
2018-09-14T19:41:32.007Z,101703.75
2018-09-14T19:44:01.118Z,101698.52
2018-09-14T19:46:30.429Z,101692.55
2018-09-14T19:48:59.685Z,101693.88
2018-09-14T19:51:28.479Z,101695.34
2018-09-14T19:53:57.359Z,101700.34
2018-09-14T19:56:26.234Z,101715.26
2018-09-14T19:58:55.027Z,101716.92
2018-09-14T20:01:24.338Z,101708.80
2018-09-14T20:03:54.065Z,101711.53
2018-09-14T20:06:22.911Z,101718.14
2018-09-14T20:08:52.162Z,101717.11
2018-09-14T20:11:22.076Z,101718.56
2018-09-14T20:13:51.190Z,101711.86
2018-09-14T20:16:20.424Z,101708.95
2018-09-14T20:18:52.567Z,101707.77
2018-09-14T20:21:22.093Z,101708.94
2018-09-14T20:23:52.094Z,101714.34
2018-09-14T20:26:20.900Z,101720.18
2018-09-14T20:28:52.301Z,101713.17
2018-09-14T20:31:21.668Z,101717.23
2018-09-14T20:33:51.218Z,101715.45
2018-09-14T20:36:23.568Z,101709.09
2018-09-14T20:38:53.312Z,101712.24
2018-09-14T20:41:23.641Z,101709.67
2018-09-14T20:43:54.670Z,101706.70
2018-09-14T20:46:25.469Z,101712.16
2018-09-14T20:48:57.631Z,101722.52
2018-09-14T20:51:27.695Z,101715.44
2018-09-14T20:53:57.510Z,101715.34
2018-09-14T20:56:26.374Z,101708.05
2018-09-14T20:58:55.581Z,101709.95
2018-09-14T21:01:25.451Z,101716.00
2018-09-14T21:03:54.567Z,101711.97
2018-09-14T21:06:23.807Z,101716.06
2018-09-14T21:08:52.701Z,101719.13
2018-09-14T21:11:21.645Z,101715.03
2018-09-14T21:13:50.506Z,101719.13
2018-09-14T21:16:19.253Z,101716.72
2018-09-14T21:18:48.083Z,101713.09
2018-09-14T21:21:17.382Z,101720.25
2018-09-14T21:23:46.206Z,101718.48
2018-09-14T21:26:15.770Z,101716.77
2018-09-14T21:28:45.440Z,101716.13
2018-09-14T21:31:22.380Z,101720.44
2018-09-14T21:33:51.535Z,101723.56
2018-09-14T21:36:21.295Z,101715.77
2018-09-14T21:38:52.557Z,101717.13
2018-09-14T21:41:21.498Z,101719.42
2018-09-14T21:43:50.875Z,101729.38
2018-09-14T21:46:23.227Z,101721.11
2018-09-14T21:48:58.831Z,101715.67
2018-09-14T21:51:28.239Z,101723.53
2018-09-14T21:53:58.307Z,101722.77
2018-09-14T21:56:27.238Z,101719.13
2018-09-14T21:58:59.847Z,101724.19
2018-09-14T22:01:29.906Z,101719.52
2018-09-14T22:03:59.953Z,101721.53
2018-09-14T22:06:30.015Z,101722.45
2018-09-14T22:09:00.009Z,101723.81
2018-09-14T22:11:31.318Z,101721.94
2018-09-14T22:14:00.665Z,101721.47
2018-09-14T22:16:29.466Z,101724.27
2018-09-14T22:18:59.239Z,101723.59
2018-09-14T22:21:34.390Z,101724.58
2018-09-14T22:24:03.565Z,101730.09
2018-09-14T22:26:44.289Z,101722.61
2018-09-14T22:29:13.500Z,101725.14
2018-09-14T22:31:42.259Z,101723.11
2018-09-14T22:34:11.123Z,101725.09
2018-09-14T22:36:40.438Z,101726.59
2018-09-14T22:39:11.134Z,101725.28
2018-09-14T22:41:40.225Z,101717.78
2018-09-14T22:44:09.041Z,101722.25
2018-09-14T22:46:37.783Z,101730.18
2018-09-14T22:49:06.861Z,101723.00
2018-09-14T22:51:35.773Z,101725.58
2018-09-14T22:54:04.485Z,101728.42
2018-09-14T22:56:33.313Z,101734.05
2018-09-14T22:59:02.155Z,101731.69
2018-09-14T23:01:31.496Z,101725.23
2018-09-14T23:04:00.625Z,101728.53
2018-09-14T23:06:29.787Z,101725.86
2018-09-14T23:08:59.272Z,101723.19
2018-09-14T23:11:27.948Z,101726.45
2018-09-14T23:13:57.230Z,101724.58
2018-09-14T23:16:26.000Z,101723.02
2018-09-14T23:18:55.056Z,101730.76
2018-09-14T23:21:25.120Z,101725.95
2018-09-14T23:23:54.828Z,101730.09
2018-09-14T23:26:25.699Z,101733.70
2018-09-14T23:28:55.726Z,101730.77
2018-09-14T23:31:25.963Z,101725.94
2018-09-14T23:33:54.689Z,101730.64
2018-09-14T23:36:23.426Z,101727.70
2018-09-14T23:38:52.249Z,101721.52
2018-09-14T23:41:21.246Z,101725.66
2018-09-14T23:43:50.256Z,101728.96
2018-09-14T23:46:19.248Z,101727.65
2018-09-14T23:48:48.519Z,101722.52
2018-09-14T23:51:17.547Z,101724.19
2018-09-14T23:53:46.257Z,101726.16
2018-09-14T23:56:15.410Z,101730.55
2018-09-14T23:58:44.173Z,101729.24
